Time;durP1;ratioP1;P1;durP2;ratioP2;P2;SDS_P1;SDS_P2;PMS_P1;PMS_P2;Temp;Humidity;BMP_temperature;BMP_pressure;BME280_temperature;BME280_humidity;BME280_pressure;Samples;Min_cycle;Max_cycle;Signal;HPM_P1;HPM_P2
2022/05/23 00:01:08;;;;;;;4.60;4.20;;;;;;;;;;5035055;28;20217;-55
2022/05/23 00:03:35;;;;;;;4.37;4.07;;;;;;;;;;5045693;28;20191;-55
2022/05/23 00:06:03;;;;;;;4.27;4.00;;;;;;;;;;5047076;28;20213;-55
2022/05/23 00:08:29;;;;;;;4.67;4.10;;;;;;;;;;5047757;28;20203;-56
2022/05/23 00:10:55;;;;;;;4.50;4.10;;;;;;;;;;5045218;28;20556;-56
2022/05/23 00:13:24;;;;;;;4.57;4.17;;;;;;;;;;5046849;28;20176;-55
2022/05/23 00:15:51;;;;;;;5.57;4.50;;;;;;;;;;5038586;28;20195;-55
2022/05/23 00:18:23;;;;;;;4.80;4.50;;;;;;;;;;5044447;28;20599;-56
2022/05/23 00:20:49;;;;;;;4.90;4.50;;;;;;;;;;5038426;28;20193;-56
2022/05/23 00:23:16;;;;;;;4.20;3.80;;;;;;;;;;5028853;28;20191;-55
2022/05/23 00:25:42;;;;;;;4.60;4.30;;;;;;;;;;5046970;28;20201;-56
2022/05/23 00:28:09;;;;;;;5.50;5.10;;;;;;;;;;5043696;28;20662;-56
2022/05/23 00:30:36;;;;;;;4.63;4.30;;;;;;;;;;5036796;28;20191;-56
2022/05/23 00:35:55;;;;;;;4.30;3.93;;;;;;;;;;5046147;28;20315;-56
2022/05/23 00:38:21;;;;;;;4.80;4.43;;;;;;;;;;5041472;28;20775;-56
2022/05/23 00:43:40;;;;;;;4.60;4.17;;;;;;;;;;5044633;28;20208;-56
2022/05/23 00:46:06;;;;;;;4.53;4.13;;;;;;;;;;5039610;28;20218;-56
2022/05/23 00:48:33;;;;;;;4.53;4.23;;;;;;;;;;5040965;28;20185;-55
2022/05/23 00:51:01;;;;;;;4.10;3.80;;;;;;;;;;5038474;28;20682;-55
2022/05/23 00:53:33;;;;;;;5.00;4.50;;;;;;;;;;5042939;28;20203;-55
2022/05/23 00:56:00;;;;;;;4.57;4.17;;;;;;;;;;5040432;28;20548;-56
2022/05/23 00:58:40;;;;;;;3.93;3.63;;;;;;;;;;5047255;28;20265;-55
2022/05/23 01:01:09;;;;;;;4.43;4.03;;;;;;;;;;5039708;28;20189;-56
2022/05/23 01:03:35;;;;;;;4.37;4.07;;;;;;;;;;5029523;28;20205;-56
2022/05/23 01:06:02;;;;;;;4.57;4.23;;;;;;;;;;5039503;28;20197;-55
2022/05/23 01:08:29;;;;;;;4.93;4.40;;;;;;;;;;5037738;28;20210;-55
2022/05/23 01:10:55;;;;;;;4.63;4.23;;;;;;;;;;5042977;28;20238;-56
2022/05/23 01:13:21;;;;;;;4.47;4.17;;;;;;;;;;5035306;28;20297;-56
2022/05/23 01:15:52;;;;;;;4.53;4.13;;;;;;;;;;5046315;28;20177;-55
2022/05/23 01:18:27;;;;;;;4.37;4.00;;;;;;;;;;5043928;28;20227;-55
2022/05/23 01:20:59;;;;;;;5.27;4.87;;;;;;;;;;5044489;28;20250;-56
2022/05/23 01:23:34;;;;;;;4.53;4.13;;;;;;;;;;5044318;28;20449;-56
2022/05/23 01:26:00;;;;;;;4.43;4.03;;;;;;;;;;5033328;28;20198;-56
2022/05/23 01:28:26;;;;;;;5.90;4.30;;;;;;;;;;5045100;28;20170;-56
2022/05/23 01:30:53;;;;;;;4.77;4.37;;;;;;;;;;5035223;28;20597;-56
2022/05/23 01:33:19;;;;;;;5.27;4.87;;;;;;;;;;5036529;28;20175;-56
2022/05/23 01:35:46;;;;;;;4.80;4.40;;;;;;;;;;5028062;28;20192;-56
2022/05/23 01:38:12;;;;;;;4.63;4.23;;;;;;;;;;5041326;28;20527;-56
2022/05/23 01:40:38;;;;;;;4.80;4.40;;;;;;;;;;5035115;28;20548;-56
2022/05/23 01:43:07;;;;;;;4.90;4.50;;;;;;;;;;5040843;28;20188;-55
2022/05/23 01:45:37;;;;;;;4.30;3.90;;;;;;;;;;5035959;28;20671;-56
2022/05/23 01:48:04;;;;;;;4.80;4.40;;;;;;;;;;5039637;28;20189;-55
2022/05/23 01:50:30;;;;;;;5.13;4.63;;;;;;;;;;5038929;28;20393;-56
2022/05/23 01:52:58;;;;;;;4.33;4.03;;;;;;;;;;5044608;28;20193;-56
2022/05/23 01:55:24;;;;;;;4.40;3.95;;;;;;;;;;5040211;28;20486;-56
2022/05/23 01:57:51;;;;;;;4.63;4.30;;;;;;;;;;5044360;28;20176;-55
2022/05/23 02:03:03;;;;;;;4.40;4.00;;;;;;;;;;5042351;28;20396;-55
2022/05/23 02:05:33;;;;;;;4.33;4.03;;;;;;;;;;5039093;28;20727;-56
2022/05/23 02:07:59;;;;;;;4.37;4.00;;;;;;;;;;5042200;28;20651;-56
2022/05/23 02:10:26;;;;;;;4.57;4.27;;;;;;;;;;5036700;28;20607;-56
2022/05/23 02:12:53;;;;;;;5.27;4.77;;;;;;;;;;5040925;28;20267;-56
2022/05/23 02:15:22;;;;;;;4.53;4.17;;;;;;;;;;5033602;28;20187;-56
2022/05/23 02:17:49;;;;;;;4.80;4.27;;;;;;;;;;5043495;28;20296;-56
2022/05/23 02:20:15;;;;;;;4.77;4.37;;;;;;;;;;5032880;28;20783;-56
2022/05/23 02:22:42;;;;;;;4.90;4.40;;;;;;;;;;5037522;28;20191;-56
2022/05/23 02:25:08;;;;;;;4.03;3.73;;;;;;;;;;5035330;28;20690;-56
2022/05/23 02:27:38;;;;;;;4.60;4.30;;;;;;;;;;5044481;28;20652;-56
2022/05/23 02:30:05;;;;;;;4.90;4.60;;;;;;;;;;5040683;28;20236;-56
2022/05/23 02:32:31;;;;;;;4.43;4.13;;;;;;;;;;5044239;28;20177;-54
2022/05/23 02:34:58;;;;;;;4.77;4.47;;;;;;;;;;5040880;28;20590;-55
2022/05/23 02:37:25;;;;;;;5.90;5.30;;;;;;;;;;5040192;28;20191;-55
2022/05/23 02:39:51;;;;;;;4.80;4.50;;;;;;;;;;5041015;28;20691;-54
2022/05/23 02:42:18;;;;;;;4.57;4.17;;;;;;;;;;5035128;28;20194;-54
2022/05/23 02:44:46;;;;;;;4.30;4.00;;;;;;;;;;5040906;28;20201;-55
2022/05/23 02:47:13;;;;;;;4.67;4.37;;;;;;;;;;5042541;28;20170;-54
2022/05/23 02:49:39;;;;;;;5.13;4.80;;;;;;;;;;5037510;28;20177;-55
2022/05/23 02:52:08;;;;;;;4.27;3.97;;;;;;;;;;5031732;28;20607;-54
2022/05/23 02:54:34;;;;;;;6.10;4.83;;;;;;;;;;5037894;28;20311;-54
2022/05/23 02:57:04;;;;;;;4.47;4.17;;;;;;;;;;5034703;28;20927;-55
2022/05/23 02:59:30;;;;;;;4.30;4.00;;;;;;;;;;5035565;28;20446;-55
2022/05/23 03:04:42;;;;;;;4.30;4.00;;;;;;;;;;5033791;28;20274;-56
2022/05/23 03:07:09;;;;;;;4.90;4.43;;;;;;;;;;5044069;28;20774;-56
2022/05/23 03:09:35;;;;;;;4.43;4.03;;;;;;;;;;5046149;28;20192;-56
2022/05/23 03:12:02;;;;;;;4.60;4.30;;;;;;;;;;5046391;28;20192;-56
2022/05/23 03:14:28;;;;;;;4.33;3.87;;;;;;;;;;5044286;28;20642;-56
2022/05/23 03:16:59;;;;;;;4.47;4.17;;;;;;;;;;5028572;28;20179;-55
2022/05/23 03:19:25;;;;;;;6.43;6.03;;;;;;;;;;5040012;28;20199;-56
2022/05/23 03:27:27;;;;;;;3.90;3.60;;;;;;;;;;5040771;28;20240;-55
2022/05/23 03:29:54;;;;;;;4.97;4.57;;;;;;;;;;5038792;28;20207;-55
2022/05/23 03:32:23;;;;;;;4.20;3.90;;;;;;;;;;5042833;28;20173;-55
2022/05/23 03:34:50;;;;;;;4.13;3.83;;;;;;;;;;5036697;28;20185;-55
2022/05/23 03:37:17;;;;;;;4.03;3.43;;;;;;;;;;5046498;28;20255;-55
2022/05/23 03:39:46;;;;;;;4.17;3.87;;;;;;;;;;5037634;28;20174;-55
2022/05/23 03:42:12;;;;;;;3.87;3.67;;;;;;;;;;5037173;28;20170;-55
2022/05/23 03:44:38;;;;;;;4.37;4.07;;;;;;;;;;5038358;28;20565;-55
2022/05/23 03:47:04;;;;;;;4.00;3.70;;;;;;;;;;5040293;28;20188;-55
2022/05/23 03:49:32;;;;;;;4.30;3.90;;;;;;;;;;5038965;28;20203;-55
2022/05/23 03:51:59;;;;;;;4.20;3.90;;;;;;;;;;5028245;28;20197;-56
2022/05/23 03:54:25;;;;;;;4.70;4.30;;;;;;;;;;5038037;28;21004;-55
2022/05/23 03:56:51;;;;;;;3.93;3.67;;;;;;;;;;5030663;28;20182;-55
2022/05/23 03:59:18;;;;;;;4.00;3.73;;;;;;;;;;5042819;28;20644;-55
2022/05/23 04:01:44;;;;;;;3.63;3.33;;;;;;;;;;5040086;28;20280;-55
2022/05/23 04:04:10;;;;;;;3.87;3.67;;;;;;;;;;5028948;28;20222;-55
2022/05/23 04:06:38;;;;;;;4.03;3.73;;;;;;;;;;5020015;28;20188;-55
2022/05/23 04:09:04;;;;;;;4.83;4.50;;;;;;;;;;5040993;28;20180;-55
2022/05/23 04:11:30;;;;;;;4.47;4.17;;;;;;;;;;5048492;28;20182;-55
2022/05/23 04:13:56;;;;;;;4.13;3.87;;;;;;;;;;5040108;28;20192;-55
2022/05/23 04:16:27;;;;;;;4.00;3.70;;;;;;;;;;5048453;28;20169;-55
2022/05/23 04:18:55;;;;;;;4.63;4.23;;;;;;;;;;5041585;28;20182;-55
2022/05/23 04:21:21;;;;;;;8.77;8.23;;;;;;;;;;5049449;28;20169;-55
2022/05/23 04:23:48;;;;;;;4.83;4.43;;;;;;;;;;5039761;28;20185;-55
2022/05/23 04:26:16;;;;;;;4.67;4.37;;;;;;;;;;5030007;28;20182;-56
2022/05/23 04:28:43;;;;;;;4.20;3.80;;;;;;;;;;5039896;28;20231;-56
2022/05/23 04:31:09;;;;;;;3.50;3.20;;;;;;;;;;5036712;28;20181;-56
2022/05/23 04:36:20;;;;;;;4.87;4.57;;;;;;;;;;5038805;28;20196;-55
2022/05/23 04:38:46;;;;;;;5.50;5.03;;;;;;;;;;5037641;28;20553;-55
2022/05/23 04:41:12;;;;;;;3.60;3.30;;;;;;;;;;5043551;28;20262;-55
2022/05/23 04:43:42;;;;;;;4.03;3.67;;;;;;;;;;5047676;28;20260;-55
2022/05/23 04:46:08;;;;;;;6.60;6.20;;;;;;;;;;5027633;28;20626;-55
2022/05/23 04:51:22;;;;;;;3.57;3.23;;;;;;;;;;5041109;28;20190;-55
2022/05/23 04:53:55;;;;;;;3.27;3.07;;;;;;;;;;5036121;28;20624;-55
2022/05/23 04:56:22;;;;;;;4.90;3.70;;;;;;;;;;5029196;28;20630;-56
2022/05/23 04:58:51;;;;;;;3.93;3.63;;;;;;;;;;5030987;28;20569;-55
2022/05/23 05:01:17;;;;;;;4.33;4.03;;;;;;;;;;5032455;28;20294;-55
2022/05/23 05:03:44;;;;;;;3.90;3.60;;;;;;;;;;5030755;28;20213;-56
2022/05/23 05:06:13;;;;;;;3.83;3.53;;;;;;;;;;5042867;28;20181;-56
2022/05/23 05:08:39;;;;;;;3.50;3.20;;;;;;;;;;5040489;28;20241;-55
2022/05/23 05:11:05;;;;;;;3.37;3.13;;;;;;;;;;5045116;28;20531;-55
2022/05/23 05:13:36;;;;;;;3.50;3.30;;;;;;;;;;5036599;28;20194;-55
2022/05/23 05:16:03;;;;;;;5.30;5.00;;;;;;;;;;5035246;28;20607;-55
2022/05/23 05:18:30;;;;;;;3.60;3.30;;;;;;;;;;5028545;28;20199;-56
2022/05/23 05:20:57;;;;;;;5.10;4.80;;;;;;;;;;5037128;28;20271;-55
2022/05/23 05:23:24;;;;;;;4.10;3.70;;;;;;;;;;5025851;28;20648;-56
2022/05/23 05:25:53;;;;;;;3.60;3.40;;;;;;;;;;5032106;28;20200;-55
2022/05/23 05:28:20;;;;;;;3.70;3.40;;;;;;;;;;5040978;28;20191;-55
2022/05/23 05:30:50;;;;;;;4.00;3.70;;;;;;;;;;5034276;28;20189;-56
2022/05/23 05:33:19;;;;;;;3.73;3.40;;;;;;;;;;5037812;28;20186;-55
2022/05/23 05:35:48;;;;;;;3.70;3.40;;;;;;;;;;5030499;28;20450;-55
2022/05/23 05:38:49;;;;;;;3.53;3.23;;;;;;;;;;5041173;28;20718;-55
2022/05/23 05:41:20;;;;;;;3.60;3.40;;;;;;;;;;5030292;28;20237;-56
2022/05/23 05:43:49;;;;;;;3.70;3.50;;;;;;;;;;5044758;28;20180;-54
2022/05/23 05:46:25;;;;;;;3.57;3.37;;;;;;;;;;5041664;28;20238;-56
2022/05/23 05:48:51;;;;;;;3.20;2.90;;;;;;;;;;5030381;28;20647;-55
2022/05/23 05:51:18;;;;;;;4.00;3.60;;;;;;;;;;5045188;28;20634;-55
2022/05/23 05:53:48;;;;;;;3.30;3.10;;;;;;;;;;5047249;28;20197;-55
2022/05/23 05:56:14;;;;;;;3.60;3.33;;;;;;;;;;5048125;28;20368;-55
2022/05/23 05:58:40;;;;;;;3.27;3.07;;;;;;;;;;5045156;28;20259;-55
2022/05/23 06:01:07;;;;;;;4.80;4.37;;;;;;;;;;5043663;28;20242;-55
2022/05/23 06:03:34;;;;;;;5.17;4.77;;;;;;;;;;5045534;28;20202;-55
2022/05/23 06:11:31;;;;;;;3.13;2.93;;;;;;;;;;5047757;28;20648;-56
2022/05/23 06:13:58;;;;;;;3.97;3.67;;;;;;;;;;5043966;28;20640;-56
2022/05/23 06:16:25;;;;;;;3.53;3.27;;;;;;;;;;5040342;28;20531;-56
2022/05/23 06:18:55;;;;;;;3.63;3.43;;;;;;;;;;5038616;28;20190;-56
2022/05/23 06:21:22;;;;;;;5.63;5.33;;;;;;;;;;5027074;28;20190;-56
2022/05/23 06:23:48;;;;;;;3.87;3.50;;;;;;;;;;5026187;28;20207;-56
2022/05/23 06:26:21;;;;;;;3.60;3.30;;;;;;;;;;5027982;28;20182;-56
2022/05/23 06:28:47;;;;;;;3.30;3.10;;;;;;;;;;5043926;28;20266;-56
2022/05/23 06:31:15;;;;;;;3.93;3.63;;;;;;;;;;5026652;28;20192;-56
2022/05/23 06:33:41;;;;;;;3.42;3.22;;;;;;;;;;5010246;28;20461;-56
2022/05/23 06:36:08;;;;;;;4.53;4.17;;;;;;;;;;5026815;28;20228;-56
2022/05/23 06:38:36;;;;;;;4.00;3.63;;;;;;;;;;5027615;28;20165;-56
2022/05/23 06:41:03;;;;;;;4.07;3.53;;;;;;;;;;5028399;28;20314;-56
2022/05/23 06:43:29;;;;;;;4.37;4.00;;;;;;;;;;5046672;28;20191;-56
2022/05/23 06:45:56;;;;;;;4.20;3.83;;;;;;;;;;5041864;28;20194;-56
2022/05/23 06:48:25;;;;;;;4.13;3.73;;;;;;;;;;5049239;28;20191;-56
2022/05/23 06:50:51;;;;;;;3.73;3.40;;;;;;;;;;5030334;28;20185;-56
2022/05/23 06:53:22;;;;;;;4.20;3.90;;;;;;;;;;5029891;28;20187;-56
2022/05/23 06:55:48;;;;;;;4.63;4.23;;;;;;;;;;5049306;28;20901;-57
2022/05/23 06:58:15;;;;;;;4.40;4.10;;;;;;;;;;5049933;28;20181;-56
2022/05/23 07:00:42;;;;;;;3.50;3.23;;;;;;;;;;5045691;28;20232;-56
2022/05/23 07:03:08;;;;;;;4.23;3.83;;;;;;;;;;5049474;28;20269;-56
2022/05/23 07:13:52;;;;;;;3.47;3.27;;;;;;;;;;5048245;28;20188;-56
2022/05/23 07:16:19;;;;;;;3.77;3.10;;;;;;;;;;5049914;28;20193;-56
2022/05/23 07:18:46;;;;;;;3.73;3.43;;;;;;;;;;5047483;28;20177;-56
2022/05/23 07:21:12;;;;;;;3.70;3.40;;;;;;;;;;5029994;28;20178;-56
2022/05/23 07:23:38;;;;;;;4.13;3.50;;;;;;;;;;5030466;28;20194;-56
2022/05/23 07:26:06;;;;;;;5.57;5.07;;;;;;;;;;5050933;28;20597;-56
2022/05/23 07:28:32;;;;;;;3.47;3.17;;;;;;;;;;5050620;28;20184;-56
2022/05/23 07:31:00;;;;;;;4.77;3.77;;;;;;;;;;5041557;28;20272;-56
2022/05/23 07:33:29;;;;;;;3.73;3.43;;;;;;;;;;5046522;28;20174;-57
2022/05/23 07:35:59;;;;;;;4.30;3.90;;;;;;;;;;5050794;28;20252;-56
2022/05/23 07:38:26;;;;;;;3.30;3.10;;;;;;;;;;5050233;28;20624;-56
2022/05/23 07:40:52;;;;;;;4.80;4.17;;;;;;;;;;5048458;28;20185;-56
2022/05/23 07:43:19;;;;;;;3.93;3.63;;;;;;;;;;5050342;28;20533;-56
2022/05/23 07:45:51;;;;;;;4.27;3.97;;;;;;;;;;5048765;28;20579;-56
2022/05/23 07:48:17;;;;;;;3.33;3.03;;;;;;;;;;5049237;28;20219;-56
2022/05/23 07:50:44;;;;;;;4.27;3.10;;;;;;;;;;5033924;28;20210;-56
2022/05/23 08:01:27;;;;;;;4.93;3.50;;;;;;;;;;5050140;28;20435;-56
2022/05/23 08:03:53;;;;;;;5.37;3.60;;;;;;;;;;5041894;28;20196;-56
2022/05/23 08:06:19;;;;;;;4.00;3.40;;;;;;;;;;5044793;28;20193;-56
2022/05/23 08:08:49;;;;;;;3.57;3.27;;;;;;;;;;5044789;28;20806;-56
2022/05/23 08:11:17;;;;;;;5.43;3.43;;;;;;;;;;5048332;28;20261;-56
2022/05/23 08:13:47;;;;;;;5.97;3.53;;;;;;;;;;5048510;28;20577;-56
2022/05/23 08:16:13;;;;;;;5.33;4.00;;;;;;;;;;5040880;28;20256;-56
2022/05/23 08:18:40;;;;;;;4.20;3.80;;;;;;;;;;5047198;28;20272;-56
2022/05/23 08:21:06;;;;;;;4.43;3.60;;;;;;;;;;5048130;28;20177;-56
2022/05/23 08:23:32;;;;;;;4.63;4.07;;;;;;;;;;5045460;28;20251;-56
2022/05/23 08:25:58;;;;;;;4.63;3.53;;;;;;;;;;5044602;28;20208;-56
2022/05/23 08:28:25;;;;;;;3.77;3.33;;;;;;;;;;5039390;28;20374;-56
2022/05/23 08:30:53;;;;;;;4.07;3.70;;;;;;;;;;5046729;28;20212;-56
2022/05/23 08:33:19;;;;;;;3.77;3.33;;;;;;;;;;5046589;28;20209;-56
2022/05/23 08:35:48;;;;;;;3.90;3.50;;;;;;;;;;5032287;28;21078;-56
2022/05/23 08:38:14;;;;;;;3.87;3.53;;;;;;;;;;5030003;28;20535;-56
2022/05/23 08:41:02;;;;;;;3.53;3.27;;;;;;;;;;5039534;28;20181;-57
2022/05/23 08:43:32;;;;;;;5.10;4.07;;;;;;;;;;5028575;28;21916;-56
2022/05/23 08:45:59;;;;;;;3.37;3.10;;;;;;;;;;5039292;28;20215;-57
2022/05/23 08:48:28;;;;;;;5.37;3.67;;;;;;;;;;5043777;28;20183;-56
2022/05/23 08:50:59;;;;;;;3.50;3.20;;;;;;;;;;5040594;28;20177;-56
2022/05/23 08:53:28;;;;;;;3.53;3.23;;;;;;;;;;5047262;28;20193;-56
2022/05/23 08:56:01;;;;;;;3.50;3.13;;;;;;;;;;5042874;28;20631;-56
2022/05/23 08:58:34;;;;;;;5.53;4.27;;;;;;;;;;5046706;28;20170;-56
2022/05/23 09:01:05;;;;;;;5.27;3.50;;;;;;;;;;5037328;28;20258;-57
2022/05/23 09:03:37;;;;;;;3.80;3.50;;;;;;;;;;5043645;28;20280;-56
2022/05/23 09:06:07;;;;;;;3.87;3.57;;;;;;;;;;5044958;28;20305;-56
2022/05/23 09:08:38;;;;;;;4.20;3.80;;;;;;;;;;5040637;28;20216;-57
2022/05/23 09:11:07;;;;;;;4.50;3.40;;;;;;;;;;5037201;28;20216;-56
2022/05/23 09:13:35;;;;;;;4.27;3.40;;;;;;;;;;5029124;28;20652;-56
2022/05/23 09:16:04;;;;;;;4.00;3.60;;;;;;;;;;5026899;28;20280;-56
2022/05/23 09:18:38;;;;;;;3.77;3.30;;;;;;;;;;5046291;28;20448;-56
2022/05/23 09:21:05;;;;;;;3.63;3.30;;;;;;;;;;5044041;28;20559;-56
2022/05/23 09:23:32;;;;;;;4.90;4.17;;;;;;;;;;5036792;28;20185;-56
2022/05/23 09:26:00;;;;;;;5.27;3.33;;;;;;;;;;5026271;28;20255;-56
2022/05/23 09:28:30;;;;;;;3.67;3.43;;;;;;;;;;5048598;28;20542;-56
2022/05/23 09:30:58;;;;;;;4.10;3.87;;;;;;;;;;5039320;28;20341;-56
2022/05/23 09:33:25;;;;;;;3.73;3.43;;;;;;;;;;5040637;28;20184;-56
2022/05/23 09:35:53;;;;;;;4.77;4.37;;;;;;;;;;5030466;28;20640;-56
2022/05/23 09:38:22;;;;;;;4.23;3.80;;;;;;;;;;5030185;28;20648;-56
2022/05/23 09:40:49;;;;;;;3.63;3.33;;;;;;;;;;5041031;28;20192;-56
2022/05/23 09:49:06;;;;;;;5.10;3.10;;;;;;;;;;5034111;28;20229;-56
2022/05/23 09:51:33;;;;;;;4.83;4.30;;;;;;;;;;5043684;28;20200;-56
2022/05/23 09:54:03;;;;;;;4.53;4.13;;;;;;;;;;5036538;28;20259;-57
2022/05/23 09:56:29;;;;;;;3.53;3.10;;;;;;;;;;5038472;28;20178;-56
2022/05/23 09:58:56;;;;;;;5.07;4.67;;;;;;;;;;5032765;28;20543;-56
2022/05/23 10:01:26;;;;;;;4.67;3.70;;;;;;;;;;5028138;28;20264;-56
2022/05/23 10:03:52;;;;;;;3.73;3.23;;;;;;;;;;5037797;28;20644;-57
2022/05/23 10:06:20;;;;;;;3.67;3.37;;;;;;;;;;5026801;28;20617;-57
2022/05/23 10:08:48;;;;;;;4.20;3.57;;;;;;;;;;5030244;28;20177;-57
2022/05/23 10:11:22;;;;;;;3.40;3.10;;;;;;;;;;5030369;28;20174;-56
2022/05/23 10:13:50;;;;;;;4.70;4.10;;;;;;;;;;5037448;28;20260;-56
2022/05/23 10:16:18;;;;;;;3.27;3.07;;;;;;;;;;5020844;28;20198;-56
2022/05/23 10:19:05;;;;;;;7.27;3.63;;;;;;;;;;5025298;28;20182;-56
2022/05/23 10:21:34;;;;;;;3.45;3.22;;;;;;;;;;5041776;28;20790;-56
2022/05/23 10:24:27;;;;;;;4.07;3.50;;;;;;;;;;5048906;28;20816;-56
2022/05/23 10:26:59;;;;;;;4.63;3.13;;;;;;;;;;5042204;28;20185;-56
2022/05/23 10:29:57;;;;;;;3.97;3.60;;;;;;;;;;5049909;28;20182;-56
2022/05/23 10:32:46;;;;;;;5.17;3.60;;;;;;;;;;5032092;28;20189;-56
2022/05/23 10:35:16;;;;;;;3.83;3.53;;;;;;;;;;5039481;28;20550;-56
2022/05/23 10:37:44;;;;;;;3.97;3.57;;;;;;;;;;5042970;28;20574;-56
2022/05/23 10:43:03;;;;;;;3.60;3.07;;;;;;;;;;5049135;28;20236;-56
2022/05/23 10:45:35;;;;;;;3.67;3.03;;;;;;;;;;5045594;28;20660;-56
2022/05/23 10:48:11;;;;;;;3.53;3.23;;;;;;;;;;5028860;28;20186;-57
2022/05/23 10:50:49;;;;;;;4.33;3.93;;;;;;;;;;5033287;28;20181;-57
2022/05/23 10:53:38;;;;;;;3.77;3.00;;;;;;;;;;5032776;28;20762;-56
2022/05/23 10:56:13;;;;;;;4.07;3.67;;;;;;;;;;5048227;28;20226;-56
2022/05/23 10:58:45;;;;;;;3.33;3.03;;;;;;;;;;5036184;28;20647;-57
2022/05/23 11:01:27;;;;;;;3.97;3.63;;;;;;;;;;5036725;28;20193;-57
2022/05/23 11:04:13;;;;;;;4.00;3.40;;;;;;;;;;5027274;28;20288;-57
2022/05/23 11:06:58;;;;;;;3.43;3.13;;;;;;;;;;5009825;28;20208;-56
2022/05/23 11:09:39;;;;;;;3.67;3.33;;;;;;;;;;5037275;28;20616;-57
2022/05/23 11:12:08;;;;;;;3.43;3.20;;;;;;;;;;5046322;28;20181;-56
2022/05/23 11:14:47;;;;;;;3.80;3.43;;;;;;;;;;5048111;28;20220;-56
2022/05/23 11:17:33;;;;;;;3.70;3.40;;;;;;;;;;5046316;28;20184;-56
2022/05/23 11:20:06;;;;;;;3.50;3.20;;;;;;;;;;5042191;28;20188;-57
2022/05/23 11:22:37;;;;;;;4.20;3.80;;;;;;;;;;5038003;28;20194;-57
2022/05/23 11:25:16;;;;;;;3.77;3.33;;;;;;;;;;5031870;28;20753;-57
2022/05/23 11:33:47;;;;;;;4.03;3.30;;;;;;;;;;5045365;28;20588;-57
2022/05/23 11:36:15;;;;;;;5.03;4.30;;;;;;;;;;5033719;28;20259;-57
2022/05/23 11:38:45;;;;;;;4.37;3.30;;;;;;;;;;5046702;28;20295;-57
2022/05/23 11:41:32;;;;;;;3.63;3.30;;;;;;;;;;5038787;28;20184;-57
2022/05/23 11:43:59;;;;;;;3.67;3.10;;;;;;;;;;5045208;28;20646;-57
2022/05/23 11:46:45;;;;;;;3.73;3.20;;;;;;;;;;5048922;28;20230;-57
2022/05/23 11:49:32;;;;;;;4.27;3.97;;;;;;;;;;5045011;28;20209;-57
2022/05/23 11:52:01;;;;;;;3.70;3.40;;;;;;;;;;5048416;28;20705;-57
2022/05/23 11:54:31;;;;;;;3.73;3.37;;;;;;;;;;5039214;28;20236;-57
2022/05/23 11:57:03;;;;;;;3.70;3.40;;;;;;;;;;5043824;28;20173;-57
2022/05/23 11:59:31;;;;;;;3.60;3.30;;;;;;;;;;5042353;28;20190;-57
2022/05/23 12:02:10;;;;;;;4.43;3.57;;;;;;;;;;5029317;28;20210;-57
2022/05/23 12:04:52;;;;;;;4.20;3.80;;;;;;;;;;5038931;28;20571;-57
2022/05/23 12:07:38;;;;;;;5.40;5.00;;;;;;;;;;5044713;28;20298;-57
2022/05/23 12:10:16;;;;;;;6.00;4.37;;;;;;;;;;5048148;28;20177;-57
2022/05/23 12:12:47;;;;;;;4.40;3.30;;;;;;;;;;5039332;28;20188;-57
2022/05/23 12:15:32;;;;;;;3.47;3.03;;;;;;;;;;5055133;28;20182;-57
2022/05/23 12:18:00;;;;;;;3.17;2.70;;;;;;;;;;5048520;28;20169;-58
2022/05/23 12:20:28;;;;;;;4.13;3.50;;;;;;;;;;5034424;28;20723;-57
2022/05/23 12:23:12;;;;;;;3.80;3.47;;;;;;;;;;5030483;28;20189;-58
2022/05/23 12:25:38;;;;;;;6.03;4.03;;;;;;;;;;5033209;28;20210;-57
2022/05/23 12:28:10;;;;;;;4.43;4.10;;;;;;;;;;5027997;28;20189;-57
2022/05/23 12:30:41;;;;;;;4.57;4.17;;;;;;;;;;5030962;28;20174;-57
2022/05/23 12:33:23;;;;;;;3.63;3.33;;;;;;;;;;5043306;28;20632;-57
2022/05/23 12:35:54;;;;;;;3.83;3.43;;;;;;;;;;5035231;28;20196;-57
2022/05/23 12:38:41;;;;;;;3.50;3.30;;;;;;;;;;5045941;28;20654;-57
2022/05/23 12:41:07;;;;;;;4.20;3.10;;;;;;;;;;5042249;28;20200;-57
2022/05/23 12:44:09;;;;;;;4.00;3.63;;;;;;;;;;5046924;28;20174;-56
2022/05/23 12:46:38;;;;;;;4.10;3.67;;;;;;;;;;4951326;28;20207;-57
2022/05/23 12:49:22;;;;;;;4.40;3.33;;;;;;;;;;5026770;28;20594;-57
2022/05/23 12:52:03;;;;;;;5.47;3.70;;;;;;;;;;5044640;28;20674;-57
2022/05/23 12:54:44;;;;;;;3.00;2.70;;;;;;;;;;5042267;28;20213;-57
2022/05/23 12:57:46;;;;;;;3.70;3.30;;;;;;;;;;5035706;28;20186;-57
2022/05/23 13:00:22;;;;;;;3.67;3.37;;;;;;;;;;4981190;28;20184;-57
2022/05/23 13:02:51;;;;;;;4.73;3.63;;;;;;;;;;5031671;28;20292;-57
2022/05/23 13:05:24;;;;;;;6.23;3.60;;;;;;;;;;5045068;28;20237;-57
2022/05/23 13:07:59;;;;;;;4.03;3.33;;;;;;;;;;5043639;28;21045;-57
2022/05/23 13:10:36;;;;;;;3.77;3.47;;;;;;;;;;5042127;28;20181;-57
2022/05/23 13:13:08;;;;;;;5.23;3.57;;;;;;;;;;5019479;28;20234;-57
2022/05/23 13:15:35;;;;;;;4.20;3.80;;;;;;;;;;5040224;28;20174;-58
2022/05/23 13:23:36;;;;;;;4.13;3.73;;;;;;;;;;5028775;28;20251;-57
2022/05/23 13:26:06;;;;;;;6.23;4.53;;;;;;;;;;5033360;28;20211;-58
2022/05/23 13:28:32;;;;;;;4.17;3.77;;;;;;;;;;5040499;28;20206;-57
2022/05/23 13:31:04;;;;;;;6.20;3.87;;;;;;;;;;5037136;28;20226;-58
2022/05/23 13:33:31;;;;;;;6.20;4.10;;;;;;;;;;5043188;28;20232;-58
2022/05/23 13:36:08;;;;;;;3.67;3.33;;;;;;;;;;5045163;28;20192;-58
2022/05/23 13:38:43;;;;;;;4.10;3.67;;;;;;;;;;5041094;28;20223;-57
2022/05/23 13:41:25;;;;;;;3.83;3.50;;;;;;;;;;5030180;28;20266;-57
2022/05/23 13:43:51;;;;;;;3.90;3.50;;;;;;;;;;5039623;28;20190;-57
2022/05/23 13:46:30;;;;;;;5.40;3.50;;;;;;;;;;5045357;28;20199;-58
2022/05/23 13:49:17;;;;;;;5.57;3.87;;;;;;;;;;5035700;28;20190;-57
2022/05/23 13:51:48;;;;;;;4.17;3.87;;;;;;;;;;5035909;28;20259;-58
2022/05/23 13:54:36;;;;;;;6.33;4.63;;;;;;;;;;5039650;28;20173;-58
2022/05/23 13:57:09;;;;;;;5.70;4.50;;;;;;;;;;5040343;28;20187;-57
2022/05/23 13:59:39;;;;;;;10.30;5.93;;;;;;;;;;5034652;28;20533;-57
2022/05/23 14:02:10;;;;;;;8.10;5.20;;;;;;;;;;5036437;28;20664;-57
2022/05/23 14:04:38;;;;;;;5.97;5.05;;;;;;;;;;5038953;28;20444;-57
2022/05/23 14:07:16;;;;;;;6.10;4.00;;;;;;;;;;5041424;28;20198;-59
2022/05/23 14:09:54;;;;;;;5.63;4.40;;;;;;;;;;5036321;28;20673;-60
2022/05/23 14:12:26;;;;;;;6.03;4.57;;;;;;;;;;5031403;28;20172;-60
2022/05/23 14:14:57;;;;;;;9.50;4.50;;;;;;;;;;5030389;28;20354;-61
2022/05/23 14:17:30;;;;;;;5.27;4.50;;;;;;;;;;5035130;28;20576;-61
2022/05/23 14:20:16;;;;;;;5.33;4.80;;;;;;;;;;5042365;28;20222;-60
2022/05/23 14:22:58;;;;;;;6.13;5.17;;;;;;;;;;5041895;28;20656;-60
2022/05/23 14:25:30;;;;;;;8.23;4.33;;;;;;;;;;5032312;28;20251;-60
2022/05/23 14:28:04;;;;;;;6.70;4.53;;;;;;;;;;5034062;28;20193;-62
2022/05/23 14:30:35;;;;;;;7.00;4.50;;;;;;;;;;5041774;28;20179;-61
2022/05/23 14:33:04;;;;;;;8.80;4.53;;;;;;;;;;5039833;28;20200;-62
2022/05/23 14:35:41;;;;;;;6.93;4.67;;;;;;;;;;5042716;28;20213;-62
2022/05/23 14:38:19;;;;;;;5.87;5.37;;;;;;;;;;5034293;28;20201;-62
2022/05/23 14:40:45;;;;;;;5.37;4.83;;;;;;;;;;5043626;28;20177;-61
2022/05/23 14:43:12;;;;;;;6.10;4.57;;;;;;;;;;5038300;28;20226;-62
2022/05/23 14:46:00;;;;;;;6.60;4.07;;;;;;;;;;5034664;28;20213;-61
2022/05/23 14:48:41;;;;;;;6.47;5.10;;;;;;;;;;5030790;28;20189;-61
2022/05/23 14:51:12;;;;;;;5.00;4.53;;;;;;;;;;5040375;28;20174;-62
2022/05/23 14:56:23;;;;;;;7.53;5.97;;;;;;;;;;5037923;28;20232;-61
2022/05/23 15:01:41;;;;;;;5.73;4.57;;;;;;;;;;5031156;28;20184;-61
2022/05/23 15:04:21;;;;;;;5.43;4.13;;;;;;;;;;5036170;28;20244;-62
2022/05/23 15:06:52;;;;;;;5.50;5.00;;;;;;;;;;5038419;28;20217;-60
2022/05/23 15:09:22;;;;;;;5.43;4.20;;;;;;;;;;5036021;28;20632;-61
2022/05/23 15:11:49;;;;;;;7.40;4.63;;;;;;;;;;5038624;28;20181;-61
2022/05/23 15:14:16;;;;;;;7.43;4.10;;;;;;;;;;5034237;28;20178;-61
2022/05/23 15:16:48;;;;;;;8.93;5.23;;;;;;;;;;5040661;28;20595;-61
2022/05/23 15:19:18;;;;;;;7.07;4.50;;;;;;;;;;5042979;28;20713;-61
2022/05/23 15:21:45;;;;;;;4.80;4.40;;;;;;;;;;5042607;28;20198;-61
2022/05/23 15:24:11;;;;;;;5.30;4.90;;;;;;;;;;5036350;28;20241;-61
2022/05/23 15:26:41;;;;;;;7.53;4.83;;;;;;;;;;5037744;28;20870;-61
2022/05/23 15:29:08;;;;;;;6.80;4.63;;;;;;;;;;5043032;28;20196;-61
2022/05/23 15:31:38;;;;;;;6.40;5.00;;;;;;;;;;5033834;28;20189;-61
2022/05/23 15:34:08;;;;;;;5.33;4.60;;;;;;;;;;5037116;28;20584;-60
2022/05/23 15:36:36;;;;;;;8.83;5.10;;;;;;;;;;5041949;28;20276;-60
2022/05/23 15:39:02;;;;;;;5.20;4.50;;;;;;;;;;5033241;28;20189;-61
2022/05/23 15:41:28;;;;;;;6.77;5.33;;;;;;;;;;5039863;28;20664;-60
2022/05/23 15:43:55;;;;;;;7.23;4.87;;;;;;;;;;5039036;28;20208;-60
2022/05/23 15:46:23;;;;;;;5.97;5.07;;;;;;;;;;5023330;28;20228;-60
2022/05/23 15:48:49;;;;;;;5.10;4.60;;;;;;;;;;5032944;28;20261;-60
2022/05/23 15:51:18;;;;;;;9.07;5.63;;;;;;;;;;5039136;28;20237;-61
2022/05/23 15:53:46;;;;;;;5.70;5.10;;;;;;;;;;5038393;28;20289;-60
2022/05/23 15:56:15;;;;;;;5.07;4.57;;;;;;;;;;5039930;28;20219;-58
2022/05/23 15:58:44;;;;;;;6.30;5.60;;;;;;;;;;5038894;28;20577;-59
2022/05/23 16:01:17;;;;;;;7.07;6.37;;;;;;;;;;5036940;28;20554;-59
2022/05/23 16:03:44;;;;;;;5.77;4.73;;;;;;;;;;5035062;28;20573;-59
2022/05/23 16:06:25;;;;;;;5.83;5.10;;;;;;;;;;5036638;28;20200;-60
2022/05/23 16:08:52;;;;;;;6.87;4.50;;;;;;;;;;5034990;28;20185;-60
2022/05/23 16:11:24;;;;;;;5.20;4.27;;;;;;;;;;5033862;28;20627;-60